Wetterdaten: aktuell Dienstag, 22.01.2019 08:00
Datum Zeit Temp. A. Luft Gew. Boden Gew. Boden A. Feuchte A. Luftdruck Regen Wind Richtung Richtung Sonnenschein ET UV Solar Taupunkt Windchill Windben Empfang
22.01.2019 08:00 -3.5 C 0.0 C 0.0 C 0.0 C 89 % 1017.3 hPa 0.0 l/m 2.7 km/h (1 Bft) W-SW 248 0 min 0.000 mm 0.0 UV-I 0 W/m -5.0 C -3.5 C 9.7 km/h (2 Bft) 100.00 %
22.01.2019 07:00 -3.4 C 0.0 C 0.0 C 0.0 C 89 % 1017.4 hPa 0.0 l/m 3.8 km/h (1 Bft) W-SW 257 0 min 0.000 mm 0.0 UV-I 0 W/m -4.9 C -3.4 C 9.7 km/h (2 Bft) 97.44 %
22.01.2019 06:00 -3.4 C 0.0 C 0.0 C 0.0 C 90 % 1017.9 hPa 0.0 l/m 2.7 km/h (1 Bft) W-SW 254 0 min 0.000 mm 0.0 UV-I 0 W/m -4.8 C -3.4 C 6.4 km/h (2 Bft) 99.15 %
22.01.2019 05:00 -3.6 C 0.0 C 0.0 C 0.0 C 89 % 1018.5 hPa 0.0 l/m 1.7 km/h (1 Bft) W 267 0 min 0.000 mm 0.0 UV-I 0 W/m -5.1 C -3.6 C 8.0 km/h (2 Bft) 99.17 %
22.01.2019 04:00 -3.6 C 0.0 C 0.0 C 0.0 C 89 % 1019.4 hPa 0.0 l/m 1.1 km/h (1 Bft) W 267 0 min 0.000 mm 0.0 UV-I 0 W/m -5.1 C -3.6 C 4.8 km/h (1 Bft) 99.15 %
22.01.2019 03:00 -3.5 C 0.0 C 0.0 C 0.0 C 89 % 1019.8 hPa 0.0 l/m 5.7 km/h (1 Bft) W 273 0 min 0.000 mm 0.0 UV-I 0 W/m -5.0 C -3.5 C 11.3 km/h (2 Bft) 97.44 %
22.01.2019 02:00 -3.2 C 0.0 C 0.0 C 0.0 C 88 % 1020.4 hPa 0.0 l/m 5.8 km/h (2 Bft) W 269 0 min 0.000 mm 0.0 UV-I 0 W/m -4.9 C -3.2 C 9.7 km/h (2 Bft) 78.57 %
22.01.2019 01:00 -3.1 C 0.0 C 0.0 C 0.0 C 89 % 1021.2 hPa 0.0 l/m 4.7 km/h (1 Bft) W-NW 283 0 min 0.000 mm 0.0 UV-I 0 W/m -4.6 C -3.1 C 9.7 km/h (2 Bft) 100.00 %
22.01.2019 00:00 -2.8 C 0.0 C 0.0 C 0.0 C 88 % 1021.7 hPa 0.0 l/m 2.2 km/h (1 Bft) N-NW 327 0 min 0.000 mm 0.0 UV-I 0 W/m -4.5 C -2.8 C 6.4 km/h (2 Bft) 100.00 %
21.01.2019 23:00 -2.7 C 0.0 C 0.0 C 0.0 C 89 % 1021.8 hPa 0.0 l/m 1.4 km/h (1 Bft) N-NW 342 0 min 0.000 mm 0.0 UV-I 0 W/m -4.3 C -2.7 C 6.4 km/h (2 Bft) 100.00 %
21.01.2019 22:00 -2.3 C 0.0 C 0.0 C 0.0 C 90 % 1022.0 hPa 0.0 l/m 0.7 km/h (0 Bft) W-NW 296 0 min 0.000 mm 0.0 UV-I 0 W/m -3.7 C -2.3 C 6.4 km/h (2 Bft) 94.02 %
21.01.2019 21:00 -2.1 C 0.0 C 0.0 C 0.0 C 91 % 1022.2 hPa 0.0 l/m 3.9 km/h (1 Bft) W 264 0 min 0.000 mm 0.0 UV-I 0 W/m -3.4 C -2.1 C 9.7 km/h (2 Bft) 99.15 %
21.01.2019 20:00 -2.0 C 0.0 C 0.0 C 0.0 C 91 % 1022.4 hPa 0.0 l/m 1.5 km/h (1 Bft) W 278 0 min 0.000 mm 0.0 UV-I 0 W/m -3.3 C -2.0 C 6.4 km/h (2 Bft) 100.00 %
21.01.2019 19:00 -2.1 C 0.0 C 0.0 C 0.0 C 91 % 1022.4 hPa 0.0 l/m 1.1 km/h (1 Bft) W 267 0 min 0.000 mm 0.0 UV-I 0 W/m -3.4 C -2.1 C 6.4 km/h (2 Bft) 98.29 %
21.01.2019 18:00 -2.0 C 0.0 C 0.0 C 0.0 C 90 % 1022.4 hPa 0.0 l/m 1.7 km/h (1 Bft) NW 313 0 min 0.000 mm 0.0 UV-I 0 W/m -3.4 C -2.0 C 8.0 km/h (2 Bft) 98.15 %
21.01.2019 17:00 -1.8 C 0.0 C 0.0 C 0.0 C 90 % 1022.5 hPa 0.0 l/m 0.1 km/h (0 Bft) N 5 0 min 0.001 mm 0.0 UV-I 0 W/m -3.2 C -1.8 C 3.2 km/h (1 Bft) 100.00 %
21.01.2019 16:00 -1.8 C 0.0 C 0.0 C 0.0 C 90 % 1022.7 hPa 0.0 l/m 0.3 km/h (0 Bft) N 5 0 min 0.025 mm 0.0 UV-I 27 W/m -3.2 C -1.8 C 3.2 km/h (1 Bft) 100.00 %
21.01.2019 15:00 -2.3 C 0.0 C 0.0 C 0.0 C 90 % 1023.0 hPa 0.0 l/m 0.0 km/h (0 Bft) N 5 0 min 0.025 mm 0.0 UV-I 88 W/m -3.7 C -2.3 C 1.6 km/h (1 Bft) 100.00 %
21.01.2019 14:00 -2.4 C 0.0 C 0.0 C 0.0 C 90 % 1023.2 hPa 0.0 l/m 0.5 km/h (0 Bft) N-NO 13 0 min 0.025 mm 0.0 UV-I 116 W/m -3.8 C -2.4 C 3.2 km/h (1 Bft) 100.00 %
21.01.2019 13:00 -2.8 C 0.0 C 0.0 C 0.0 C 92 % 1023.5 hPa 0.0 l/m 0.5 km/h (0 Bft) NO 55 10 min 0.026 mm 0.5 UV-I 139 W/m -3.9 C -2.8 C 4.8 km/h (1 Bft) 97.44 %
21.01.2019 12:00 -3.4 C 0.0 C 0.0 C 0.0 C 93 % 1024.0 hPa 0.0 l/m 0.9 km/h (0 Bft) NO 55 0 min 0.026 mm 0.0 UV-I 117 W/m -4.4 C -3.4 C 4.8 km/h (1 Bft) 100.00 %
21.01.2019 11:00 -4.1 C 0.0 C 0.0 C 0.0 C 93 % 1024.5 hPa 0.0 l/m 2.5 km/h (1 Bft) NO 49 0 min 0.025 mm 0.0 UV-I 76 W/m -5.1 C -4.1 C 6.4 km/h (2 Bft) 99.15 %
21.01.2019 10:00 -4.3 C 0.0 C 0.0 C 0.0 C 93 % 1024.2 hPa 0.0 l/m 4.8 km/h (1 Bft) NO 42 0 min 0.000 mm 0.0 UV-I 40 W/m -5.3 C -4.3 C 9.7 km/h (2 Bft) 100.00 %
21.01.2019 09:00 -4.2 C 0.0 C 0.0 C 0.0 C 93 % 1023.8 hPa 0.0 l/m 5.1 km/h (1 Bft) O-NO 65 0 min 0.000 mm 0.0 UV-I 25 W/m -5.2 C -4.2 C 9.7 km/h (2 Bft) 97.46 %
_ Min-Zeit 09:50 09:00 09:00 09:00 23:20 07:35 - 11:30 - - - - - - 09:55 09:55 13:45 02:00
Minimum _ -4.3 C 0.0 C 0.0 C 0.0 C 88 % 1017.2 hPa - 0.0 km/h (0 Bft) - - - - - - -5.3 C -4.3 C 0.0 km/h (0 Bft) 78.57 %
_ Max-Zeit 16:20 09:00 09:00 09:00 11:05 10:50 09:00 03:05 - - 12:35 13:05 12:30 12:35 16:20 16:20 09:35 10:00
Maximum _ -1.7 C 0.0 C 0.0 C 0.0 C 94 % 1024.6 hPa 0.0 l/m 6.5 km/h
W (2 Bft)
- - 5 min 0.051 mm 0.6 UV-I 163 W/m -3.1 C -1.7 C 11.3 km/h
O (2 Bft)
100.00 %
Durchschnitt _ -3.0 C 0.0 C 0.0 C 0.0 C 90 % 1021.8 hPa #0.0 l/m 2.7 km/h (1 Bft) W - #0 min. #0.000 mm 0.0 UV-I 0 W/m -4.3 C -3.0 C 6.5 km/h (2 Bft) 98.55 %